sensor_id;sensor_type;location;lat;lon;timestamp;temperature;humidity
73780;SHT30;62093;37.614;15.072;2022-11-02T00:00:33;19.76;47.88
73780;SHT30;62093;37.614;15.072;2022-11-02T00:03:00;19.78;47.29
73780;SHT30;62093;37.614;15.072;2022-11-02T00:05:26;19.78;47.71
73780;SHT30;62093;37.614;15.072;2022-11-02T00:07:54;19.74;47.21
73780;SHT30;62093;37.614;15.072;2022-11-02T00:10:21;19.76;47.20
73780;SHT30;62093;37.614;15.072;2022-11-02T00:12:48;19.74;47.43
73780;SHT30;62093;37.614;15.072;2022-11-02T00:15:16;19.71;47.38
73780;SHT30;62093;37.614;15.072;2022-11-02T00:17:47;19.67;47.70
73780;SHT30;62093;37.614;15.072;2022-11-02T00:20:17;19.67;47.36
73780;SHT30;62093;37.614;15.072;2022-11-02T00:22:46;19.73;47.69
73780;SHT30;62093;37.614;15.072;2022-11-02T00:25:15;19.60;47.25
73780;SHT30;62093;37.614;15.072;2022-11-02T00:27:42;19.63;47.66
73780;SHT30;62093;37.614;15.072;2022-11-02T00:30:09;19.69;47.27
73780;SHT30;62093;37.614;15.072;2022-11-02T00:32:35;19.60;47.82
73780;SHT30;62093;37.614;15.072;2022-11-02T00:35:01;19.62;47.45
73780;SHT30;62093;37.614;15.072;2022-11-02T00:37:27;19.57;47.62
73780;SHT30;62093;37.614;15.072;2022-11-02T00:39:54;19.59;47.39
73780;SHT30;62093;37.614;15.072;2022-11-02T00:42:20;19.60;47.88
73780;SHT30;62093;37.614;15.072;2022-11-02T00:44:46;19.60;47.66
73780;SHT30;62093;37.614;15.072;2022-11-02T00:47:12;19.69;47.33
73780;SHT30;62093;37.614;15.072;2022-11-02T00:49:38;19.66;47.30
73780;SHT30;62093;37.614;15.072;2022-11-02T00:52:05;19.63;46.80
73780;SHT30;62093;37.614;15.072;2022-11-02T00:54:31;19.59;47.07
73780;SHT30;62093;37.614;15.072;2022-11-02T00:56:58;19.60;47.12
73780;SHT30;62093;37.614;15.072;2022-11-02T00:59:24;19.54;46.69
73780;SHT30;62093;37.614;15.072;2022-11-02T01:01:50;19.57;47.18
73780;SHT30;62093;37.614;15.072;2022-11-02T01:04:16;19.57;47.59
73780;SHT30;62093;37.614;15.072;2022-11-02T01:06:43;19.62;46.95
73780;SHT30;62093;37.614;15.072;2022-11-02T01:09:10;19.67;46.26
73780;SHT30;62093;37.614;15.072;2022-11-02T01:11:36;19.63;46.96
73780;SHT30;62093;37.614;15.072;2022-11-02T01:14:02;19.56;46.57
73780;SHT30;62093;37.614;15.072;2022-11-02T01:16:28;19.66;46.71
73780;SHT30;62093;37.614;15.072;2022-11-02T01:18:55;19.54;46.40
73780;SHT30;62093;37.614;15.072;2022-11-02T01:21:22;19.60;46.36
73780;SHT30;62093;37.614;15.072;2022-11-02T01:23:48;19.62;46.61
73780;SHT30;62093;37.614;15.072;2022-11-02T01:26:14;19.62;46.19
73780;SHT30;62093;37.614;15.072;2022-11-02T01:28:40;19.62;45.88
73780;SHT30;62093;37.614;15.072;2022-11-02T01:31:10;19.56;45.95
73780;SHT30;62093;37.614;15.072;2022-11-02T01:33:46;19.62;46.45
73780;SHT30;62093;37.614;15.072;2022-11-02T01:36:13;19.59;46.08
73780;SHT30;62093;37.614;15.072;2022-11-02T01:38:40;19.63;46.16
73780;SHT30;62093;37.614;15.072;2022-11-02T01:41:08;19.57;46.04
73780;SHT30;62093;37.614;15.072;2022-11-02T01:43:36;19.57;46.29
73780;SHT30;62093;37.614;15.072;2022-11-02T01:46:39;19.52;45.58
73780;SHT30;62093;37.614;15.072;2022-11-02T01:49:13;19.56;46.40
73780;SHT30;62093;37.614;15.072;2022-11-02T01:52:01;19.53;46.45
73780;SHT30;62093;37.614;15.072;2022-11-02T01:54:33;19.56;45.98
73780;SHT30;62093;37.614;15.072;2022-11-02T01:57:05;19.52;45.90
73780;SHT30;62093;37.614;15.072;2022-11-02T01:59:38;19.49;45.68
73780;SHT30;62093;37.614;15.072;2022-11-02T02:02:12;19.59;45.53
73780;SHT30;62093;37.614;15.072;2022-11-02T02:04:40;19.64;45.83
73780;SHT30;62093;37.614;15.072;2022-11-02T02:07:07;19.71;45.82
73780;SHT30;62093;37.614;15.072;2022-11-02T02:09:33;19.66;45.42
73780;SHT30;62093;37.614;15.072;2022-11-02T02:12:00;19.78;45.90
73780;SHT30;62093;37.614;15.072;2022-11-02T02:14:26;19.70;45.54
73780;SHT30;62093;37.614;15.072;2022-11-02T02:19:35;19.69;45.45
73780;SHT30;62093;37.614;15.072;2022-11-02T02:30:30;19.57;45.45
73780;SHT30;62093;37.614;15.072;2022-11-02T02:33:12;19.62;45.13
73780;SHT30;62093;37.614;15.072;2022-11-02T02:36:03;19.64;45.39
73780;SHT30;62093;37.614;15.072;2022-11-02T02:38:33;19.63;44.78
73780;SHT30;62093;37.614;15.072;2022-11-02T02:44:02;19.73;45.06
73780;SHT30;62093;37.614;15.072;2022-11-02T02:46:39;19.66;45.28
73780;SHT30;62093;37.614;15.072;2022-11-02T02:49:10;19.69;44.84
73780;SHT30;62093;37.614;15.072;2022-11-02T02:51:39;19.74;45.32
73780;SHT30;62093;37.614;15.072;2022-11-02T02:54:11;19.76;45.22
73780;SHT30;62093;37.614;15.072;2022-11-02T02:56:47;19.70;44.42
73780;SHT30;62093;37.614;15.072;2022-11-02T03:01:51;19.62;44.97
73780;SHT30;62093;37.614;15.072;2022-11-02T03:04:19;19.71;44.96
73780;SHT30;62093;37.614;15.072;2022-11-02T03:06:53;19.70;44.99
73780;SHT30;62093;37.614;15.072;2022-11-02T03:09:28;19.67;44.90
73780;SHT30;62093;37.614;15.072;2022-11-02T03:15:06;19.70;44.38
73780;SHT30;62093;37.614;15.072;2022-11-02T03:23:11;19.70;44.16
73780;SHT30;62093;37.614;15.072;2022-11-02T03:28:41;19.60;44.04
73780;SHT30;62093;37.614;15.072;2022-11-02T03:31:17;19.64;44.57
73780;SHT30;62093;37.614;15.072;2022-11-02T03:36:42;19.59;44.59
73780;SHT30;62093;37.614;15.072;2022-11-02T03:39:15;19.63;44.69
73780;SHT30;62093;37.614;15.072;2022-11-02T03:41:43;19.64;44.44
73780;SHT30;62093;37.614;15.072;2022-11-02T03:44:18;19.67;45.12
73780;SHT30;62093;37.614;15.072;2022-11-02T03:46:47;19.56;44.75
73780;SHT30;62093;37.614;15.072;2022-11-02T03:49:17;19.60;44.82
73780;SHT30;62093;37.614;15.072;2022-11-02T03:51:45;19.56;44.37
73780;SHT30;62093;37.614;15.072;2022-11-02T03:54:20;19.53;43.82
73780;SHT30;62093;37.614;15.072;2022-11-02T03:56:55;19.60;44.65
73780;SHT30;62093;37.614;15.072;2022-11-02T03:59:23;19.63;44.22
73780;SHT30;62093;37.614;15.072;2022-11-02T04:01:50;19.66;44.53
73780;SHT30;62093;37.614;15.072;2022-11-02T04:04:19;19.60;45.17
73780;SHT30;62093;37.614;15.072;2022-11-02T04:06:47;19.47;45.11
73780;SHT30;62093;37.614;15.072;2022-11-02T04:09:14;19.49;44.92
73780;SHT30;62093;37.614;15.072;2022-11-02T04:11:40;19.52;44.70
73780;SHT30;62093;37.614;15.072;2022-11-02T04:14:27;19.53;44.95
73780;SHT30;62093;37.614;15.072;2022-11-02T04:17:15;19.43;44.84
73780;SHT30;62093;37.614;15.072;2022-11-02T04:20:04;19.52;44.61
73780;SHT30;62093;37.614;15.072;2022-11-02T04:22:31;19.52;44.86
73780;SHT30;62093;37.614;15.072;2022-11-02T04:25:18;19.56;44.93
73780;SHT30;62093;37.614;15.072;2022-11-02T04:28:08;19.49;45.05
73780;SHT30;62093;37.614;15.072;2022-11-02T04:30:47;19.52;45.23
73780;SHT30;62093;37.614;15.072;2022-11-02T04:33:14;19.47;44.94
73780;SHT30;62093;37.614;15.072;2022-11-02T04:36:05;19.53;46.08
73780;SHT30;62093;37.614;15.072;2022-11-02T04:38:33;19.56;44.80
73780;SHT30;62093;37.614;15.072;2022-11-02T04:43:54;19.49;44.51
73780;SHT30;62093;37.614;15.072;2022-11-02T04:46:22;19.42;45.44
73780;SHT30;62093;37.614;15.072;2022-11-02T04:48:49;19.45;45.42
73780;SHT30;62093;37.614;15.072;2022-11-02T04:51:15;19.52;45.06
73780;SHT30;62093;37.614;15.072;2022-11-02T04:53:43;19.57;44.52
73780;SHT30;62093;37.614;15.072;2022-11-02T04:56:09;19.56;44.56
73780;SHT30;62093;37.614;15.072;2022-11-02T04:58:36;19.50;44.91
73780;SHT30;62093;37.614;15.072;2022-11-02T05:01:05;19.52;45.12
73780;SHT30;62093;37.614;15.072;2022-11-02T05:03:34;19.47;44.41
73780;SHT30;62093;37.614;15.072;2022-11-02T05:06:02;19.56;44.17
73780;SHT30;62093;37.614;15.072;2022-11-02T05:08:29;19.50;44.62
73780;SHT30;62093;37.614;15.072;2022-11-02T05:10:56;19.50;44.72
73780;SHT30;62093;37.614;15.072;2022-11-02T05:13:24;19.49;43.84
73780;SHT30;62093;37.614;15.072;2022-11-02T05:15:55;19.45;44.94
73780;SHT30;62093;37.614;15.072;2022-11-02T05:18:21;19.49;44.68
73780;SHT30;62093;37.614;15.072;2022-11-02T05:20:52;19.53;44.59
73780;SHT30;62093;37.614;15.072;2022-11-02T05:23:20;19.54;45.31
73780;SHT30;62093;37.614;15.072;2022-11-02T05:25:54;19.54;44.63
73780;SHT30;62093;37.614;15.072;2022-11-02T05:28:20;19.53;44.15
73780;SHT30;62093;37.614;15.072;2022-11-02T05:30:47;19.59;44.65
73780;SHT30;62093;37.614;15.072;2022-11-02T05:33:13;19.56;44.68
73780;SHT30;62093;37.614;15.072;2022-11-02T05:35:39;19.52;44.39
73780;SHT30;62093;37.614;15.072;2022-11-02T05:38:05;19.62;44.48
73780;SHT30;62093;37.614;15.072;2022-11-02T05:40:32;19.59;44.05
73780;SHT30;62093;37.614;15.072;2022-11-02T05:43:08;19.67;44.81
73780;SHT30;62093;37.614;15.072;2022-11-02T05:45:35;19.60;44.60
73780;SHT30;62093;37.614;15.072;2022-11-02T05:48:03;19.66;44.07
73780;SHT30;62093;37.614;15.072;2022-11-02T05:50:31;19.60;44.63
73780;SHT30;62093;37.614;15.072;2022-11-02T05:53:00;19.63;45.37
73780;SHT30;62093;37.614;15.072;2022-11-02T05:55:26;19.63;44.50
73780;SHT30;62093;37.614;15.072;2022-11-02T05:57:53;19.62;45.11
73780;SHT30;62093;37.614;15.072;2022-11-02T06:00:22;19.60;44.52
73780;SHT30;62093;37.614;15.072;2022-11-02T06:02:55;19.57;45.63
73780;SHT30;62093;37.614;15.072;2022-11-02T06:05:24;19.66;44.90
73780;SHT30;62093;37.614;15.072;2022-11-02T06:07:52;19.69;45.53
73780;SHT30;62093;37.614;15.072;2022-11-02T06:10:18;19.69;45.67
73780;SHT30;62093;37.614;15.072;2022-11-02T06:12:44;19.71;44.94
73780;SHT30;62093;37.614;15.072;2022-11-02T06:15:10;19.73;45.85
73780;SHT30;62093;37.614;15.072;2022-11-02T06:17:39;19.70;45.63
73780;SHT30;62093;37.614;15.072;2022-11-02T06:20:06;19.73;45.53
73780;SHT30;62093;37.614;15.072;2022-11-02T06:22:39;19.73;45.40
73780;SHT30;62093;37.614;15.072;2022-11-02T06:25:07;19.73;45.66
73780;SHT30;62093;37.614;15.072;2022-11-02T13:11:18;21.41;47.03
73780;SHT30;62093;37.614;15.072;2022-11-02T13:13:50;21.43;47.10
73780;SHT30;62093;37.614;15.072;2022-11-02T13:16:21;21.41;47.16
73780;SHT30;62093;37.614;15.072;2022-11-02T13:18:51;21.43;47.39
73780;SHT30;62093;37.614;15.072;2022-11-02T13:21:32;21.44;47.50
73780;SHT30;62093;37.614;15.072;2022-11-02T13:23:59;21.51;48.61
73780;SHT30;62093;37.614;15.072;2022-11-02T13:26:27;21.50;48.49
73780;SHT30;62093;37.614;15.072;2022-11-02T13:31:55;21.47;49.59
73780;SHT30;62093;37.614;15.072;2022-11-02T13:34:35;21.48;50.23
73780;SHT30;62093;37.614;15.072;2022-11-02T13:37:13;21.46;50.22
73780;SHT30;62093;37.614;15.072;2022-11-02T13:39:44;21.47;50.48
73780;SHT30;62093;37.614;15.072;2022-11-02T13:50:48;21.48;51.01
73780;SHT30;62093;37.614;15.072;2022-11-02T13:53:18;21.50;50.71
73780;SHT30;62093;37.614;15.072;2022-11-02T13:55:56;21.43;50.54
73780;SHT30;62093;37.614;15.072;2022-11-02T13:58:34;21.44;50.78
73780;SHT30;62093;37.614;15.072;2022-11-02T14:01:04;21.47;50.92
73780;SHT30;62093;37.614;15.072;2022-11-02T14:03:52;21.51;51.04
73780;SHT30;62093;37.614;15.072;2022-11-02T14:06:19;21.51;51.58
73780;SHT30;62093;37.614;15.072;2022-11-02T14:22:02;21.54;53.72
73780;SHT30;62093;37.614;15.072;2022-11-02T14:49:20;21.31;53.91
73780;SHT30;62093;37.614;15.072;2022-11-02T14:51:55;21.33;53.29
73780;SHT30;62093;37.614;15.072;2022-11-02T14:54:22;21.31;53.37
73780;SHT30;62093;37.614;15.072;2022-11-02T14:56:55;21.27;53.05
73780;SHT30;62093;37.614;15.072;2022-11-02T14:59:29;21.27;52.82
73780;SHT30;62093;37.614;15.072;2022-11-02T15:02:02;21.26;52.56
73780;SHT30;62093;37.614;15.072;2022-11-02T15:04:30;21.23;52.59
73780;SHT30;62093;37.614;15.072;2022-11-02T15:07:00;21.23;52.63
73780;SHT30;62093;37.614;15.072;2022-11-02T15:09:56;21.24;52.81
73780;SHT30;62093;37.614;15.072;2022-11-02T15:12:38;21.28;52.64
73780;SHT30;62093;37.614;15.072;2022-11-02T15:17:51;21.27;52.59
73780;SHT30;62093;37.614;15.072;2022-11-02T15:20:33;21.28;52.51
73780;SHT30;62093;37.614;15.072;2022-11-02T15:23:03;21.31;52.60
73780;SHT30;62093;37.614;15.072;2022-11-02T15:25:35;21.34;52.39
73780;SHT30;62093;37.614;15.072;2022-11-02T15:28:10;21.34;52.44
73780;SHT30;62093;37.614;15.072;2022-11-02T15:30:43;21.33;52.54
73780;SHT30;62093;37.614;15.072;2022-11-02T15:35:46;21.34;52.46
73780;SHT30;62093;37.614;15.072;2022-11-02T15:38:12;21.34;52.61
73780;SHT30;62093;37.614;15.072;2022-11-02T15:40:53;21.31;52.58
73780;SHT30;62093;37.614;15.072;2022-11-02T15:43:36;21.31;52.50
73780;SHT30;62093;37.614;15.072;2022-11-02T16:00:18;21.31;52.50
73780;SHT30;62093;37.614;15.072;2022-11-02T16:02:51;21.30;52.51
73780;SHT30;62093;37.614;15.072;2022-11-02T16:05:25;21.31;52.50
73780;SHT30;62093;37.614;15.072;2022-11-02T16:07:56;21.33;52.65
73780;SHT30;62093;37.614;15.072;2022-11-02T16:10:28;21.31;52.70
73780;SHT30;62093;37.614;15.072;2022-11-02T16:15:32;21.30;52.75
73780;SHT30;62093;37.614;15.072;2022-11-02T16:17:58;21.30;52.68
73780;SHT30;62093;37.614;15.072;2022-11-02T16:20:35;21.30;52.80
73780;SHT30;62093;37.614;15.072;2022-11-02T16:23:06;21.30;52.78
73780;SHT30;62093;37.614;15.072;2022-11-02T16:25:40;21.27;52.76
73780;SHT30;62093;37.614;15.072;2022-11-02T16:28:26;21.31;52.77
73780;SHT30;62093;37.614;15.072;2022-11-02T16:33:30;21.28;52.70
73780;SHT30;62093;37.614;15.072;2022-11-02T16:35:58;21.28;52.67
73780;SHT30;62093;37.614;15.072;2022-11-02T16:38:24;21.28;52.83
73780;SHT30;62093;37.614;15.072;2022-11-02T16:40:50;21.27;52.75
73780;SHT30;62093;37.614;15.072;2022-11-02T16:43:23;21.30;52.83
73780;SHT30;62093;37.614;15.072;2022-11-02T16:45:49;21.28;52.71
73780;SHT30;62093;37.614;15.072;2022-11-02T16:50:59;21.28;52.74
73780;SHT30;62093;37.614;15.072;2022-11-02T16:53:27;21.28;52.64
73780;SHT30;62093;37.614;15.072;2022-11-02T16:55:54;21.31;52.61
73780;SHT30;62093;37.614;15.072;2022-11-02T16:58:27;21.30;52.67
73780;SHT30;62093;37.614;15.072;2022-11-02T17:01:03;21.28;52.83
73780;SHT30;62093;37.614;15.072;2022-11-02T17:03:31;21.28;52.49
73780;SHT30;62093;37.614;15.072;2022-11-02T17:06:01;21.30;52.79
73780;SHT30;62093;37.614;15.072;2022-11-02T17:08:34;21.28;52.66
73780;SHT30;62093;37.614;15.072;2022-11-02T17:11:03;21.31;52.67
73780;SHT30;62093;37.614;15.072;2022-11-02T17:13:33;21.27;52.49
73780;SHT30;62093;37.614;15.072;2022-11-02T17:16:10;21.28;52.64
73780;SHT30;62093;37.614;15.072;2022-11-02T17:18:36;21.27;52.56
73780;SHT30;62093;37.614;15.072;2022-11-02T17:23:43;21.30;52.66
73780;SHT30;62093;37.614;15.072;2022-11-02T17:31:54;21.30;52.76
73780;SHT30;62093;37.614;15.072;2022-11-02T17:34:21;21.31;52.54
73780;SHT30;62093;37.614;15.072;2022-11-02T17:36:48;21.28;52.71
73780;SHT30;62093;37.614;15.072;2022-11-02T17:39:16;21.30;52.39
73780;SHT30;62093;37.614;15.072;2022-11-02T17:41:43;21.26;52.73
73780;SHT30;62093;37.614;15.072;2022-11-02T17:44:29;21.31;52.80
73780;SHT30;62093;37.614;15.072;2022-11-02T17:46:55;21.31;52.74
73780;SHT30;62093;37.614;15.072;2022-11-02T17:49:20;21.28;52.72
73780;SHT30;62093;37.614;15.072;2022-11-02T17:51:46;21.33;52.83
73780;SHT30;62093;37.614;15.072;2022-11-02T17:54:13;21.30;52.69
73780;SHT30;62093;37.614;15.072;2022-11-02T17:56:39;21.27;52.67
73780;SHT30;62093;37.614;15.072;2022-11-02T17:59:05;21.27;52.50
73780;SHT30;62093;37.614;15.072;2022-11-02T18:01:31;21.26;52.68
73780;SHT30;62093;37.614;15.072;2022-11-02T18:03:57;21.24;52.70
73780;SHT30;62093;37.614;15.072;2022-11-02T18:06:23;21.22;52.76
73780;SHT30;62093;37.614;15.072;2022-11-02T18:08:48;21.22;52.72
73780;SHT30;62093;37.614;15.072;2022-11-02T18:11:33;21.23;52.60
73780;SHT30;62093;37.614;15.072;2022-11-02T18:13:59;21.26;52.86
73780;SHT30;62093;37.614;15.072;2022-11-02T18:16:25;21.22;52.78
73780;SHT30;62093;37.614;15.072;2022-11-02T18:18:50;21.26;52.86
73780;SHT30;62093;37.614;15.072;2022-11-02T18:21:16;21.23;52.49
73780;SHT30;62093;37.614;15.072;2022-11-02T18:23:42;21.23;52.73
73780;SHT30;62093;37.614;15.072;2022-11-02T18:26:10;21.20;52.33
73780;SHT30;62093;37.614;15.072;2022-11-02T18:28:37;21.20;52.58
73780;SHT30;62093;37.614;15.072;2022-11-02T18:31:07;21.17;52.52
73780;SHT30;62093;37.614;15.072;2022-11-02T18:33:33;21.17;52.56
73780;SHT30;62093;37.614;15.072;2022-11-02T18:36:07;21.19;52.77
73780;SHT30;62093;37.614;15.072;2022-11-02T18:38:34;21.19;52.64
73780;SHT30;62093;37.614;15.072;2022-11-02T18:41:06;21.19;52.48
73780;SHT30;62093;37.614;15.072;2022-11-02T18:43:51;21.19;52.63
73780;SHT30;62093;37.614;15.072;2022-11-02T18:46:17;21.19;52.58
73780;SHT30;62093;37.614;15.072;2022-11-02T18:48:43;21.24;52.35
73780;SHT30;62093;37.614;15.072;2022-11-02T18:51:09;21.22;52.57
73780;SHT30;62093;37.614;15.072;2022-11-02T18:53:35;21.20;52.45
73780;SHT30;62093;37.614;15.072;2022-11-02T18:56:02;21.23;52.62
73780;SHT30;62093;37.614;15.072;2022-11-02T18:58:28;21.24;52.56
73780;SHT30;62093;37.614;15.072;2022-11-02T19:00:54;21.22;52.65
73780;SHT30;62093;37.614;15.072;2022-11-02T19:03:20;21.22;52.85
73780;SHT30;62093;37.614;15.072;2022-11-02T19:05:45;21.30;52.94
73780;SHT30;62093;37.614;15.072;2022-11-02T19:08:30;21.27;52.88
73780;SHT30;62093;37.614;15.072;2022-11-02T19:11:14;21.23;52.98
73780;SHT30;62093;37.614;15.072;2022-11-02T19:13:40;21.27;52.92
73780;SHT30;62093;37.614;15.072;2022-11-02T19:16:06;21.23;53.03
73780;SHT30;62093;37.614;15.072;2022-11-02T19:18:31;21.22;53.11
73780;SHT30;62093;37.614;15.072;2022-11-02T19:20:58;21.26;53.15
73780;SHT30;62093;37.614;15.072;2022-11-02T19:23:24;21.24;52.96
73780;SHT30;62093;37.614;15.072;2022-11-02T19:25:50;21.22;52.92
73780;SHT30;62093;37.614;15.072;2022-11-02T19:28:16;21.23;53.08
73780;SHT30;62093;37.614;15.072;2022-11-02T19:30:42;21.22;52.91
73780;SHT30;62093;37.614;15.072;2022-11-02T19:33:08;21.22;52.83
73780;SHT30;62093;37.614;15.072;2022-11-02T19:35:33;21.16;52.54
73780;SHT30;62093;37.614;15.072;2022-11-02T19:38:00;21.14;52.67
73780;SHT30;62093;37.614;15.072;2022-11-02T19:40:25;21.17;53.03
73780;SHT30;62093;37.614;15.072;2022-11-02T19:42:51;21.17;52.82
73780;SHT30;62093;37.614;15.072;2022-11-02T19:45:17;21.20;52.83
73780;SHT30;62093;37.614;15.072;2022-11-02T19:47:43;21.16;52.92
73780;SHT30;62093;37.614;15.072;2022-11-02T19:50:10;21.20;52.71
73780;SHT30;62093;37.614;15.072;2022-11-02T19:52:37;21.20;53.03
73780;SHT30;62093;37.614;15.072;2022-11-02T19:55:03;21.24;52.77
73780;SHT30;62093;37.614;15.072;2022-11-02T19:57:30;21.26;52.85
73780;SHT30;62093;37.614;15.072;2022-11-02T19:59:56;21.27;53.05
73780;SHT30;62093;37.614;15.072;2022-11-02T20:02:21;21.22;52.89
73780;SHT30;62093;37.614;15.072;2022-11-02T20:04:47;21.22;53.46
73780;SHT30;62093;37.614;15.072;2022-11-02T20:07:13;21.23;53.34
73780;SHT30;62093;37.614;15.072;2022-11-02T20:09:39;21.22;53.32
73780;SHT30;62093;37.614;15.072;2022-11-02T20:12:06;21.23;52.99
73780;SHT30;62093;37.614;15.072;2022-11-02T20:14:32;21.24;53.52
73780;SHT30;62093;37.614;15.072;2022-11-02T20:16:59;21.20;53.57
73780;SHT30;62093;37.614;15.072;2022-11-02T20:19:25;21.17;53.66
73780;SHT30;62093;37.614;15.072;2022-11-02T20:21:50;21.17;53.81
73780;SHT30;62093;37.614;15.072;2022-11-02T20:24:16;21.13;53.51
73780;SHT30;62093;37.614;15.072;2022-11-02T20:26:42;21.10;53.46
73780;SHT30;62093;37.614;15.072;2022-11-02T20:29:08;21.10;53.61
73780;SHT30;62093;37.614;15.072;2022-11-02T20:31:36;21.07;53.51
73780;SHT30;62093;37.614;15.072;2022-11-02T20:34:04;21.06;53.54
73780;SHT30;62093;37.614;15.072;2022-11-02T20:36:30;21.07;53.45
73780;SHT30;62093;37.614;15.072;2022-11-02T20:38:57;21.06;53.52
73780;SHT30;62093;37.614;15.072;2022-11-02T20:41:23;21.07;53.41
73780;SHT30;62093;37.614;15.072;2022-11-02T20:43:50;21.07;53.47
73780;SHT30;62093;37.614;15.072;2022-11-02T20:46:21;21.04;53.49
73780;SHT30;62093;37.614;15.072;2022-11-02T20:48:48;21.03;53.67
73780;SHT30;62093;37.614;15.072;2022-11-02T20:51:15;21.04;53.54
73780;SHT30;62093;37.614;15.072;2022-11-02T20:53:41;21.02;53.68
73780;SHT30;62093;37.614;15.072;2022-11-02T20:56:07;21.04;53.68
73780;SHT30;62093;37.614;15.072;2022-11-02T20:58:33;21.03;53.55
73780;SHT30;62093;37.614;15.072;2022-11-02T21:00:59;20.99;53.71
73780;SHT30;62093;37.614;15.072;2022-11-02T21:03:25;21.00;53.76
73780;SHT30;62093;37.614;15.072;2022-11-02T21:05:51;20.97;53.65
73780;SHT30;62093;37.614;15.072;2022-11-02T21:08:18;21.00;53.65
73780;SHT30;62093;37.614;15.072;2022-11-02T21:10:53;20.97;53.64
73780;SHT30;62093;37.614;15.072;2022-11-02T21:13:20;20.96;53.82
73780;SHT30;62093;37.614;15.072;2022-11-02T21:16:05;20.96;53.56
73780;SHT30;62093;37.614;15.072;2022-11-02T21:18:31;20.93;53.56
73780;SHT30;62093;37.614;15.072;2022-11-02T21:21:10;20.93;53.81
73780;SHT30;62093;37.614;15.072;2022-11-02T21:23:37;20.93;53.59
73780;SHT30;62093;37.614;15.072;2022-11-02T21:26:04;20.93;53.71
73780;SHT30;62093;37.614;15.072;2022-11-02T21:28:32;20.90;53.56
73780;SHT30;62093;37.614;15.072;2022-11-02T21:31:07;20.90;53.56
73780;SHT30;62093;37.614;15.072;2022-11-02T21:33:33;20.92;53.55
73780;SHT30;62093;37.614;15.072;2022-11-02T21:36:00;20.89;53.30
73780;SHT30;62093;37.614;15.072;2022-11-02T21:38:26;20.89;53.41
73780;SHT30;62093;37.614;15.072;2022-11-02T21:40:53;20.90;53.69
73780;SHT30;62093;37.614;15.072;2022-11-02T21:43:22;20.90;53.48
73780;SHT30;62093;37.614;15.072;2022-11-02T21:45:55;20.89;53.66
73780;SHT30;62093;37.614;15.072;2022-11-02T21:48:23;20.87;53.31
73780;SHT30;62093;37.614;15.072;2022-11-02T21:51:05;20.87;53.42
73780;SHT30;62093;37.614;15.072;2022-11-02T21:53:33;20.86;53.48
73780;SHT30;62093;37.614;15.072;2022-11-02T21:56:00;20.86;53.83
73780;SHT30;62093;37.614;15.072;2022-11-02T21:58:27;20.86;53.59
73780;SHT30;62093;37.614;15.072;2022-11-02T22:01:26;20.87;53.56
73780;SHT30;62093;37.614;15.072;2022-11-02T22:04:13;20.86;53.54
73780;SHT30;62093;37.614;15.072;2022-11-02T22:06:41;20.85;53.72
73780;SHT30;62093;37.614;15.072;2022-11-02T22:09:09;20.83;53.50
73780;SHT30;62093;37.614;15.072;2022-11-02T22:11:35;20.82;53.67
73780;SHT30;62093;37.614;15.072;2022-11-02T22:14:01;20.83;53.75
73780;SHT30;62093;37.614;15.072;2022-11-02T22:16:32;20.82;53.74
73780;SHT30;62093;37.614;15.072;2022-11-02T22:19:01;20.82;53.69
73780;SHT30;62093;37.614;15.072;2022-11-02T22:21:30;20.82;53.44
73780;SHT30;62093;37.614;15.072;2022-11-02T22:23:56;20.80;53.68
73780;SHT30;62093;37.614;15.072;2022-11-02T22:26:24;20.83;53.55
73780;SHT30;62093;37.614;15.072;2022-11-02T22:28:51;20.77;53.69
73780;SHT30;62093;37.614;15.072;2022-11-02T22:31:25;20.79;53.86
73780;SHT30;62093;37.614;15.072;2022-11-02T22:33:53;20.77;53.67
73780;SHT30;62093;37.614;15.072;2022-11-02T22:36:22;20.77;53.75
73780;SHT30;62093;37.614;15.072;2022-11-02T22:38:48;20.79;53.62
73780;SHT30;62093;37.614;15.072;2022-11-02T22:41:28;20.76;53.81
73780;SHT30;62093;37.614;15.072;2022-11-02T22:44:02;20.76;53.83
73780;SHT30;62093;37.614;15.072;2022-11-02T22:46:31;20.75;53.59
73780;SHT30;62093;37.614;15.072;2022-11-02T22:48:59;20.75;53.57
73780;SHT30;62093;37.614;15.072;2022-11-02T22:51:29;20.76;53.80
73780;SHT30;62093;37.614;15.072;2022-11-02T22:53:58;20.77;53.86
73780;SHT30;62093;37.614;15.072;2022-11-02T22:56:24;20.79;53.76
73780;SHT30;62093;37.614;15.072;2022-11-02T22:58:50;20.79;53.57
73780;SHT30;62093;37.614;15.072;2022-11-02T23:01:21;20.80;53.86
73780;SHT30;62093;37.614;15.072;2022-11-02T23:03:47;20.82;53.83
73780;SHT30;62093;37.614;15.072;2022-11-02T23:06:14;20.76;53.47
73780;SHT30;62093;37.614;15.072;2022-11-02T23:08:42;20.82;53.80
73780;SHT30;62093;37.614;15.072;2022-11-02T23:11:11;20.83;53.71
73780;SHT30;62093;37.614;15.072;2022-11-02T23:16:17;20.82;53.41
73780;SHT30;62093;37.614;15.072;2022-11-02T23:21:32;20.85;53.56
73780;SHT30;62093;37.614;15.072;2022-11-02T23:23:58;20.82;53.67
73780;SHT30;62093;37.614;15.072;2022-11-02T23:26:42;20.83;53.68
73780;SHT30;62093;37.614;15.072;2022-11-02T23:29:08;20.82;53.65
73780;SHT30;62093;37.614;15.072;2022-11-02T23:31:52;20.77;53.70
73780;SHT30;62093;37.614;15.072;2022-11-02T23:34:37;20.80;53.65
73780;SHT30;62093;37.614;15.072;2022-11-02T23:37:05;20.73;53.53
73780;SHT30;62093;37.614;15.072;2022-11-02T23:39:31;20.73;53.64
73780;SHT30;62093;37.614;15.072;2022-11-02T23:42:12;20.76;53.54
73780;SHT30;62093;37.614;15.072;2022-11-02T23:44:38;20.82;53.68
73780;SHT30;62093;37.614;15.072;2022-11-02T23:47:04;20.76;53.61
73780;SHT30;62093;37.614;15.072;2022-11-02T23:49:29;20.75;53.39
73780;SHT30;62093;37.614;15.072;2022-11-02T23:51:55;20.75;53.66
73780;SHT30;62093;37.614;15.072;2022-11-02T23:54:40;20.82;53.62
73780;SHT30;62093;37.614;15.072;2022-11-02T23:57:24;20.77;53.71
73780;SHT30;62093;37.614;15.072;2022-11-02T23:59:50;20.73;53.46
